WB5LJZ-9 Weather Reports


Display with metric or nautical units.
time (UTC)temp
F
wind
direction
speed
MPH
gust
MPH
rain 1hr
in
rain 24hr
in
rain mn
in
humidity
%
barometer
mb
20211023012713 72 89 0.0 0.0 0.00 0.00 0.00 54 1014.4
20211023011516 72 89 0.0 0.0 0.00 0.00 0.00 51 1014.4
20211023010320 73 90 0.0 0.0 0.00 0.00 0.00 49 1014.4
20211023005118 74 91 0.0 0.0 0.00 0.00 0.00 48 1014.4
20211023003920 75 91 0.0 0.0 0.00 0.00 0.00 46 1014.4
20211023002723 76 92 0.0 0.0 0.00 0.00 0.00 44 1013.4
20211023001521 77 92 0.0 0.0 0.00 0.00 0.00 42 1014.4
20211023000324 78 92 0.0 0.0 0.00 0.00 0.00 40 1013.4
20211022235128 79 92 0.0 0.0 0.00 0.00 0.00 39 1014.4
20211022233921 80 91 0.0 0.0 0.00 0.00 0.00 37 1014.4
20211022232724 81 90 0.0 0.0 0.00 0.00 0.00 35 1014.4
20211022231528 82 90 0.0 0.0 0.00 0.00 0.00 34 1013.4
20211022230326 82 90 0.0 0.0 0.00 0.00 0.00 33 1014.4
20211022225128 82 90 0.0 0.0 0.00 0.00 0.00 34 1014.4
20211022223930 83 90 0.0 0.0 0.00 0.00 0.00 33 1014.4
20211022222726 84 90 0.0 0.0 0.00 0.00 0.00 33 1014.4
20211022221529 83 90 0.0 0.0 0.00 0.00 0.00 34 1014.4
20211022220331 82 90 0.0 0.0 0.00 0.00 0.00 35 1014.4
20211022215130 82 90 0.0 0.0 0.00 0.00 0.00 35 1014.4
20211022213933 83 89 0.0 0.0 0.00 0.00 0.00 33 1014.4
20211022212735 85 89 0.0 0.0 0.00 0.00 0.00 31 1014.4
20211022211534 86 89 0.0 0.0 0.00 0.00 0.00 31 1014.4
20211022210337 87 88 0.0 0.0 0.00 0.00 0.00 29 1014.4
20211022205140 87 88 0.0 0.0 0.00 0.00 0.00 30 1014.4
20211022203938 84 88 0.0 0.0 0.00 0.00 0.00 33 1014.4
20211022202742 86 88 0.0 0.0 0.00 0.00 0.00 30 1015.4
20211022201544 84 88 0.0 0.0 0.00 0.00 0.00 33 1015.4
20211022200343 87 88 0.0 0.0 0.00 0.00 0.00 30 1015.4
20211022195145 86 88 0.0 0.0 0.00 0.00 0.00 33 1015.4
20211022193949 84 87 0.0 0.0 0.00 0.00 0.00 32 1015.4
20211022192746 85 87 0.0 0.0 0.00 0.00 0.00 31 1016.4
20211022191549 89 87 0.0 0.0 0.00 0.00 0.00 28 1016.4
20211022190351 89 87 0.0 0.0 0.00 0.00 0.00 29 1016.4
20211022185148 88 87 0.0 0.0 0.00 0.00 0.00 29 1016.4
20211022183949 88 87 0.0 0.0 0.00 0.00 0.00 30 1017.4
20211022182752 88 86 0.0 0.0 0.00 0.00 0.00 28 1017.4
20211022181551 88 86 0.0 0.0 0.00 0.00 0.00 28 1017.4
20211022180353 89 87 0.0 0.0 0.00 0.00 0.00 28 1017.4
20211022175156 88 86 0.0 0.0 0.00 0.00 0.00 30 1017.4
20211022173952 86 85 0.0 0.0 0.00 0.00 0.00 31 1018.4
20211022172755 87 86 0.0 0.0 0.00 0.00 0.00 33 1018.4
20211022171557 84 85 0.0 0.0 0.00 0.00 0.00 33 1018.4
20211022170356 85 86 0.0 0.0 0.00 0.00 0.00 34 1018.4
20211022164001 85 86 0.0 0.0 0.00 0.00 0.00 35 1018.4
20211022162800 84 86 0.0 0.0 0.00 0.00 0.00 34 1018.4
20211022161600 82 85 0.0 0.0 0.00 0.00 0.00 39 1019.4
20211022161559 82 85 0.0 0.0 0.00 0.00 0.00 39 1019.4
20211022160403 82 86 0.0 0.0 0.00 0.00 0.00 41 1019.4
20211022155200 81 86 0.0 0.0 0.00 0.00 0.00 41 1019.4
20211022155159 81 86 0.0 0.0 0.00 0.00 0.00 41 1019.4
20211022154003 81 86 0.0 0.0 0.00 0.00 0.00 42 1019.4
20211022152805 80 87 0.0 0.0 0.00 0.00 0.00 45 1019.4
20211022151604 79 87 0.0 0.0 0.00 0.00 0.00 44 1019.4
20211022150402 80 88 0.0 0.0 0.00 0.00 0.00 46 1019.4
20211022144003 76 113 0.0 0.0 0.00 0.00 0.00 72 1019.4
20211022142805 73 120 0.0 0.0 0.00 0.00 0.00 76 1018.4
20211022141558 71 255 0.0 0.0 0.00 0.00 0.00 80 1018.4
20211022140354 70 351 0.0 0.0 0.00 0.00 0.00 82 1023.4
20211022135157 68 351 0.0 0.0 0.00 0.00 0.00 82 1023.4
20211022134000 66 351 0.0 0.0 0.00 0.00 0.00 83 1037.4
20211022133959 66 351 0.0 0.0 0.00 0.00 0.00 83 1037.4
20211022132758 63 338 0.0 0.0 0.00 0.00 0.00 82 1018.4
20211022131600 62 284 0.0 0.0 0.00 0.00 0.00 81 1018.4
20211022131559 62 284 0.0 0.0 0.00 0.00 0.00 81 1018.4
20211022130359 60 225 0.0 0.0 0.00 0.00 0.00 81 1018.4
20211022125156 59 219 0.0 0.0 0.00 0.00 0.00 80 1018.4
20211022123959 60 231 0.0 0.0 0.00 0.00 0.00 81 1018.4
20211022122802 59 246 0.0 0.0 0.00 0.00 0.00 80 1018.4
20211022121559 59 231 0.0 0.0 0.00 0.00 0.00 81 1018.4
20211022120401 59 244 0.0 0.0 0.00 0.00 0.00 80 1018.4
20211022115205 59 246 0.0 0.0 0.00 0.00 0.00 80 1018.4
20211022114001 60 225 0.0 0.0 0.00 0.00 0.00 80 1018.4
20211022112803 60 258 0.0 0.0 0.00 0.00 0.00 80 1017.4
20211022111609 60 257 0.0 0.0 0.00 0.00 0.00 80 1017.4
20211022111606 60 257 0.0 0.0 0.00 0.00 0.00 80 1017.4
20211022110404 60 250 0.0 0.0 0.00 0.00 0.00 80 1017.4
20211022105207 60 256 0.0 0.0 0.00 0.00 0.00 79 1017.4
20211022104009 60 275 0.0 0.0 0.00 0.00 0.00 79 1017.4
20211022102807 60 275 0.0 0.0 0.00 0.00 0.00 79 1017.4
20211022101610 60 324 0.0 0.0 0.00 0.00 0.00 78 1017.4
20211022100413 61 301 0.0 0.0 0.00 0.00 0.00 78 1017.4
20211022095201 61 56 0.0 0.0 0.00 0.00 0.00 78 1017.4
20211022094005 62 59 0.0 0.0 0.00 0.00 0.00 78 1017.4
20211022092806 63 53 0.0 0.0 0.00 0.00 0.00 78 1017.4
20211022091558 62 56 0.0 0.0 0.00 0.00 0.00 78 1018.4
20211022090400 62 57 0.0 0.0 0.00 0.00 0.00 77 1018.4
20211022085203 62 58 0.0 0.0 0.00 0.00 0.00 77 1018.4
20211022084000 61 63 0.0 0.0 0.00 0.00 0.00 77 1018.4
20211022083959 61 63 0.0 0.0 0.00 0.00 0.00 77 1018.4
20211022082728 62 64 0.0 0.0 0.00 0.00 0.00 76 1018.4
20211022081527 62 64 0.0 0.0 0.00 0.00 0.00 76 1018.4
20211022080326 63 62 0.0 0.0 0.00 0.00 0.00 76 1018.4
20211022075127 63 65 0.0 0.0 0.00 0.00 0.00 75 1018.4
20211022073929 63 67 0.0 0.0 0.00 0.00 0.00 74 1018.4
20211022071529 65 67 0.0 0.0 0.00 0.00 0.00 75 1018.4
20211022070327 64 67 0.0 0.0 0.00 0.00 0.00 74 1018.4
20211022065124 65 68 0.0 0.0 0.00 0.00 0.00 74 1019.4
20211022063927 64 67 0.0 0.0 0.00 0.00 0.00 73 1019.4
20211022062728 64 66 0.0 0.0 0.00 0.00 0.00 72 1019.4
20211022061525 65 68 0.0 0.0 0.00 0.00 0.00 72 1019.4
20211022060330 65 68 0.0 0.0 0.00 0.00 0.00 72 1019.4
20211022060328 65 68 0.0 0.0 0.00 0.00 0.00 72 1019.4
20211022055133 65 68 0.0 0.0 0.00 0.00 0.00 72 1019.4
20211022055130 65 68 0.0 0.0 0.00 0.00 0.00 72 1019.4
20211022053927 66 68 0.0 0.0 0.00 0.00 0.00 72 1019.4
20211022052727 66 68 0.0 0.0 0.00 0.00 0.00 71 1019.4
20211022051528 66 68 0.0 0.0 0.00 0.00 0.00 71 1019.4
20211022050323 66 68 0.0 0.0 0.00 0.00 0.00 70 1019.4
20211022045127 66 69 0.0 0.0 0.00 0.00 0.00 70 1019.4
20211022045124 66 69 0.0 0.0 0.00 0.00 0.00 70 1019.4
20211022043931 67 69 0.0 0.0 0.00 0.00 0.00 70 1019.4
20211022043928 67 69 0.0 0.0 0.00 0.00 0.00 70 1019.4
20211022042727 68 70 0.0 0.0 0.00 0.00 0.00 70 1019.4
20211022041529 68 70 0.0 0.0 0.00 0.00 0.00 70 1019.4
20211022040332 68 70 0.0 0.0 0.00 0.00 0.00 69 1019.4
20211022035129 68 70 0.0 0.0 0.00 0.00 0.00 69 1018.4
20211022033933 68 70 0.0 0.0 0.00 0.00 0.00 67 1018.4
20211022032735 68 70 0.0 0.0 0.00 0.00 0.00 66 1018.4
20211022031533 68 71 0.0 0.0 0.00 0.00 0.00 65 1018.4
20211022030336 68 70 0.0 0.0 0.00 0.00 0.00 65 1018.4
20211022025137 69 71 0.0 0.0 0.00 0.00 0.00 64 1018.4
20211022023934 69 75 0.0 0.0 0.00 0.00 0.00 63 1018.4
20211022022738 71 73 0.0 0.0 0.00 0.00 0.00 64 1018.4
20211022021536 70 73 0.0 0.0 0.00 0.00 0.00 63 1018.4
20211022020333 70 76 0.0 0.0 0.00 0.00 0.00 63 1018.4
20211022015136 70 73 0.0 0.0 0.00 0.00 0.00 58 1018.4
20211022013934 70 75 0.0 0.0 0.00 0.00 0.00 55 1018.4